sensor_id;sensor_type;location;lat;lon;timestamp;temperature;humidity
21712;DHT22;11017;53.552;9.910;2023-06-22T00:00:01;20.40;99.90
21712;DHT22;11017;53.552;9.910;2023-06-22T00:02:33;20.30;99.90
21712;DHT22;11017;53.552;9.910;2023-06-22T00:05:02;20.50;99.90
21712;DHT22;11017;53.552;9.910;2023-06-22T00:07:29;20.50;99.90
21712;DHT22;11017;53.552;9.910;2023-06-22T00:09:56;20.60;99.90
21712;DHT22;11017;53.552;9.910;2023-06-22T00:12:22;20.60;99.90
21712;DHT22;11017;53.552;9.910;2023-06-22T00:14:49;20.60;99.90
21712;DHT22;11017;53.552;9.910;2023-06-22T00:17:16;20.60;99.90
21712;DHT22;11017;53.552;9.910;2023-06-22T00:19:46;20.50;99.90
21712;DHT22;11017;53.552;9.910;2023-06-22T00:22:14;20.50;99.90
21712;DHT22;11017;53.552;9.910;2023-06-22T00:24:42;20.50;99.90
21712;DHT22;11017;53.552;9.910;2023-06-22T00:27:09;20.40;99.90
21712;DHT22;11017;53.552;9.910;2023-06-22T00:29:36;20.40;99.90
21712;DHT22;11017;53.552;9.910;2023-06-22T00:32:04;20.40;99.90
21712;DHT22;11017;53.552;9.910;2023-06-22T00:34:31;20.50;99.90
21712;DHT22;11017;53.552;9.910;2023-06-22T00:36:58;20.50;99.90
21712;DHT22;11017;53.552;9.910;2023-06-22T00:39:26;20.70;99.90
21712;DHT22;11017;53.552;9.910;2023-06-22T00:41:53;20.70;99.90
21712;DHT22;11017;53.552;9.910;2023-06-22T00:44:20;20.70;99.90
21712;DHT22;11017;53.552;9.910;2023-06-22T00:46:47;20.70;99.90
21712;DHT22;11017;53.552;9.910;2023-06-22T00:49:14;20.80;99.90
21712;DHT22;11017;53.552;9.910;2023-06-22T00:51:41;20.90;99.90
21712;DHT22;11017;53.552;9.910;2023-06-22T00:54:11;20.90;99.90
21712;DHT22;11017;53.552;9.910;2023-06-22T00:56:40;20.90;99.90
21712;DHT22;11017;53.552;9.910;2023-06-22T00:59:08;20.90;99.90
21712;DHT22;11017;53.552;9.910;2023-06-22T01:01:38;20.90;99.90
21712;DHT22;11017;53.552;9.910;2023-06-22T01:04:06;20.90;99.90
21712;DHT22;11017;53.552;9.910;2023-06-22T01:06:38;20.90;99.90
21712;DHT22;11017;53.552;9.910;2023-06-22T01:09:12;20.90;99.90
21712;DHT22;11017;53.552;9.910;2023-06-22T01:11:45;20.80;99.90
21712;DHT22;11017;53.552;9.910;2023-06-22T01:14:18;20.80;99.90
21712;DHT22;11017;53.552;9.910;2023-06-22T01:16:48;20.70;99.90
21712;DHT22;11017;53.552;9.910;2023-06-22T01:19:29;20.50;99.90
21712;DHT22;11017;53.552;9.910;2023-06-22T01:22:03;20.60;99.90
21712;DHT22;11017;53.552;9.910;2023-06-22T01:24:33;20.60;99.90
21712;DHT22;11017;53.552;9.910;2023-06-22T01:27:15;20.60;99.90
21712;DHT22;11017;53.552;9.910;2023-06-22T01:29:49;20.50;99.90
21712;DHT22;11017;53.552;9.910;2023-06-22T01:32:17;20.50;99.90
21712;DHT22;11017;53.552;9.910;2023-06-22T01:34:45;20.50;99.90
21712;DHT22;11017;53.552;9.910;2023-06-22T01:37:13;20.40;99.90
21712;DHT22;11017;53.552;9.910;2023-06-22T01:39:41;20.50;99.90
21712;DHT22;11017;53.552;9.910;2023-06-22T01:42:08;20.50;99.90
21712;DHT22;11017;53.552;9.910;2023-06-22T01:44:35;20.40;99.90
21712;DHT22;11017;53.552;9.910;2023-06-22T01:47:04;20.40;99.90
21712;DHT22;11017;53.552;9.910;2023-06-22T01:49:32;20.40;99.90
21712;DHT22;11017;53.552;9.910;2023-06-22T01:51:59;20.40;99.90
21712;DHT22;11017;53.552;9.910;2023-06-22T01:54:25;20.30;99.90
21712;DHT22;11017;53.552;9.910;2023-06-22T01:56:52;20.30;99.90
21712;DHT22;11017;53.552;9.910;2023-06-22T01:59:25;20.30;99.90
21712;DHT22;11017;53.552;9.910;2023-06-22T02:01:58;20.40;99.90
21712;DHT22;11017;53.552;9.910;2023-06-22T02:04:34;20.40;99.90
21712;DHT22;11017;53.552;9.910;2023-06-22T02:07:06;20.30;99.90
21712;DHT22;11017;53.552;9.910;2023-06-22T02:09:35;20.30;99.90
21712;DHT22;11017;53.552;9.910;2023-06-22T02:12:05;20.30;99.90
21712;DHT22;11017;53.552;9.910;2023-06-22T02:14:33;20.30;99.90
21712;DHT22;11017;53.552;9.910;2023-06-22T02:17:01;20.30;99.90
21712;DHT22;11017;53.552;9.910;2023-06-22T02:19:30;20.20;99.90
21712;DHT22;11017;53.552;9.910;2023-06-22T02:21:58;20.10;99.90
21712;DHT22;11017;53.552;9.910;2023-06-22T02:24:25;20.00;99.90
21712;DHT22;11017;53.552;9.910;2023-06-22T02:26:52;19.90;99.90
21712;DHT22;11017;53.552;9.910;2023-06-22T02:29:19;19.90;99.90
21712;DHT22;11017;53.552;9.910;2023-06-22T02:31:46;20.00;99.90
21712;DHT22;11017;53.552;9.910;2023-06-22T02:34:13;19.90;99.90
21712;DHT22;11017;53.552;9.910;2023-06-22T02:36:45;19.90;99.90
21712;DHT22;11017;53.552;9.910;2023-06-22T02:39:17;20.00;99.90
21712;DHT22;11017;53.552;9.910;2023-06-22T02:41:44;20.00;99.90
21712;DHT22;11017;53.552;9.910;2023-06-22T02:44:11;20.00;99.90
21712;DHT22;11017;53.552;9.910;2023-06-22T02:46:38;19.90;99.90
21712;DHT22;11017;53.552;9.910;2023-06-22T02:49:05;19.90;99.90
21712;DHT22;11017;53.552;9.910;2023-06-22T02:51:33;19.80;99.90
21712;DHT22;11017;53.552;9.910;2023-06-22T02:54:02;19.80;99.90
21712;DHT22;11017;53.552;9.910;2023-06-22T02:56:29;19.80;99.90
21712;DHT22;11017;53.552;9.910;2023-06-22T02:58:56;19.80;99.90
21712;DHT22;11017;53.552;9.910;2023-06-22T03:01:26;19.70;99.90
21712;DHT22;11017;53.552;9.910;2023-06-22T03:03:53;19.70;99.90
21712;DHT22;11017;53.552;9.910;2023-06-22T03:06:20;19.70;99.90
21712;DHT22;11017;53.552;9.910;2023-06-22T03:08:48;19.70;99.90
21712;DHT22;11017;53.552;9.910;2023-06-22T03:11:17;19.60;99.90
21712;DHT22;11017;53.552;9.910;2023-06-22T03:13:44;19.60;99.90
21712;DHT22;11017;53.552;9.910;2023-06-22T03:16:12;19.60;99.90
21712;DHT22;11017;53.552;9.910;2023-06-22T03:18:39;19.70;99.90
21712;DHT22;11017;53.552;9.910;2023-06-22T03:21:05;19.60;99.90
21712;DHT22;11017;53.552;9.910;2023-06-22T03:23:32;19.60;99.90
21712;DHT22;11017;53.552;9.910;2023-06-22T03:25:59;19.60;99.90
21712;DHT22;11017;53.552;9.910;2023-06-22T03:28:27;19.70;99.90
21712;DHT22;11017;53.552;9.910;2023-06-22T03:30:56;19.70;99.90
21712;DHT22;11017;53.552;9.910;2023-06-22T03:33:23;19.70;99.90
21712;DHT22;11017;53.552;9.910;2023-06-22T03:35:50;19.70;99.90
21712;DHT22;11017;53.552;9.910;2023-06-22T03:38:17;19.70;99.90
21712;DHT22;11017;53.552;9.910;2023-06-22T03:40:44;19.70;99.90
21712;DHT22;11017;53.552;9.910;2023-06-22T03:43:11;19.80;99.90
21712;DHT22;11017;53.552;9.910;2023-06-22T03:45:39;19.90;99.90
21712;DHT22;11017;53.552;9.910;2023-06-22T03:48:06;20.00;99.90
21712;DHT22;11017;53.552;9.910;2023-06-22T03:50:33;20.00;99.90
21712;DHT22;11017;53.552;9.910;2023-06-22T03:53:00;20.00;99.90
21712;DHT22;11017;53.552;9.910;2023-06-22T03:55:27;20.00;99.90
21712;DHT22;11017;53.552;9.910;2023-06-22T03:57:54;20.10;99.90
21712;DHT22;11017;53.552;9.910;2023-06-22T04:00:22;20.10;99.90
21712;DHT22;11017;53.552;9.910;2023-06-22T04:02:50;20.10;99.90
21712;DHT22;11017;53.552;9.910;2023-06-22T04:05:17;20.20;99.90
21712;DHT22;11017;53.552;9.910;2023-06-22T04:07:44;20.10;99.90
21712;DHT22;11017;53.552;9.910;2023-06-22T04:10:11;20.20;99.90
21712;DHT22;11017;53.552;9.910;2023-06-22T04:12:38;20.30;99.90
21712;DHT22;11017;53.552;9.910;2023-06-22T04:15:06;20.40;99.90
21712;DHT22;11017;53.552;9.910;2023-06-22T04:17:33;20.20;99.90
21712;DHT22;11017;53.552;9.910;2023-06-22T04:20:01;20.30;99.90
21712;DHT22;11017;53.552;9.910;2023-06-22T04:22:29;20.40;99.90
21712;DHT22;11017;53.552;9.910;2023-06-22T04:24:56;20.40;99.90
21712;DHT22;11017;53.552;9.910;2023-06-22T04:27:23;20.50;99.90
21712;DHT22;11017;53.552;9.910;2023-06-22T04:29:50;20.50;99.90
21712;DHT22;11017;53.552;9.910;2023-06-22T04:32:17;20.60;99.90
21712;DHT22;11017;53.552;9.910;2023-06-22T04:34:44;20.60;99.90
21712;DHT22;11017;53.552;9.910;2023-06-22T04:37:13;20.50;99.90
21712;DHT22;11017;53.552;9.910;2023-06-22T04:39:41;20.60;99.90
21712;DHT22;11017;53.552;9.910;2023-06-22T04:42:08;20.70;99.90
21712;DHT22;11017;53.552;9.910;2023-06-22T04:44:35;20.80;99.90
21712;DHT22;11017;53.552;9.910;2023-06-22T04:47:02;20.80;99.90
21712;DHT22;11017;53.552;9.910;2023-06-22T04:49:34;20.80;99.90
21712;DHT22;11017;53.552;9.910;2023-06-22T04:52:04;20.70;99.90
21712;DHT22;11017;53.552;9.910;2023-06-22T04:54:33;20.90;99.90
21712;DHT22;11017;53.552;9.910;2023-06-22T04:57:00;20.90;99.90
21712;DHT22;11017;53.552;9.910;2023-06-22T04:59:28;20.90;99.90
21712;DHT22;11017;53.552;9.910;2023-06-22T05:01:55;21.00;99.90
21712;DHT22;11017;53.552;9.910;2023-06-22T05:04:22;21.10;99.90
21712;DHT22;11017;53.552;9.910;2023-06-22T05:06:50;21.30;99.90
21712;DHT22;11017;53.552;9.910;2023-06-22T05:09:17;21.30;99.90
21712;DHT22;11017;53.552;9.910;2023-06-22T05:11:45;21.30;99.90
21712;DHT22;11017;53.552;9.910;2023-06-22T05:14:13;21.40;99.90
21712;DHT22;11017;53.552;9.910;2023-06-22T05:16:41;21.60;99.90
21712;DHT22;11017;53.552;9.910;2023-06-22T05:19:08;21.60;99.90
21712;DHT22;11017;53.552;9.910;2023-06-22T05:21:36;21.70;99.90
21712;DHT22;11017;53.552;9.910;2023-06-22T05:24:03;21.80;99.90
21712;DHT22;11017;53.552;9.910;2023-06-22T05:26:31;21.60;99.90
21712;DHT22;11017;53.552;9.910;2023-06-22T05:29:01;21.70;99.90
21712;DHT22;11017;53.552;9.910;2023-06-22T05:31:29;21.90;99.90
21712;DHT22;11017;53.552;9.910;2023-06-22T05:33:56;21.80;99.90
21712;DHT22;11017;53.552;9.910;2023-06-22T05:36:23;21.70;99.90
21712;DHT22;11017;53.552;9.910;2023-06-22T05:38:51;21.60;99.90
21712;DHT22;11017;53.552;9.910;2023-06-22T05:41:18;21.60;99.90
21712;DHT22;11017;53.552;9.910;2023-06-22T05:43:45;21.80;99.90
21712;DHT22;11017;53.552;9.910;2023-06-22T05:46:13;21.80;99.90
21712;DHT22;11017;53.552;9.910;2023-06-22T05:48:40;21.90;99.90
21712;DHT22;11017;53.552;9.910;2023-06-22T05:51:07;22.00;99.90
21712;DHT22;11017;53.552;9.910;2023-06-22T05:53:35;22.00;99.90
21712;DHT22;11017;53.552;9.910;2023-06-22T05:56:03;22.10;99.90
21712;DHT22;11017;53.552;9.910;2023-06-22T05:58:29;21.70;99.90
21712;DHT22;11017;53.552;9.910;2023-06-22T06:00:56;21.80;99.90
21712;DHT22;11017;53.552;9.910;2023-06-22T06:03:25;21.90;99.90
21712;DHT22;11017;53.552;9.910;2023-06-22T06:05:54;22.00;99.90
21712;DHT22;11017;53.552;9.910;2023-06-22T06:08:21;22.20;99.90
21712;DHT22;11017;53.552;9.910;2023-06-22T06:10:48;22.30;99.90
21712;DHT22;11017;53.552;9.910;2023-06-22T06:13:15;22.30;99.90
21712;DHT22;11017;53.552;9.910;2023-06-22T06:15:42;22.30;99.90
21712;DHT22;11017;53.552;9.910;2023-06-22T06:18:09;22.40;99.90
21712;DHT22;11017;53.552;9.910;2023-06-22T06:20:37;22.40;99.90
21712;DHT22;11017;53.552;9.910;2023-06-22T06:23:04;22.40;99.90
21712;DHT22;11017;53.552;9.910;2023-06-22T06:25:31;22.60;99.90
21712;DHT22;11017;53.552;9.910;2023-06-22T06:27:58;22.80;99.90
21712;DHT22;11017;53.552;9.910;2023-06-22T06:30:25;22.90;99.90
21712;DHT22;11017;53.552;9.910;2023-06-22T06:32:52;23.10;99.90
21712;DHT22;11017;53.552;9.910;2023-06-22T06:35:19;22.90;99.90
21712;DHT22;11017;53.552;9.910;2023-06-22T06:37:49;23.00;99.90
21712;DHT22;11017;53.552;9.910;2023-06-22T06:40:18;23.30;99.90
21712;DHT22;11017;53.552;9.910;2023-06-22T06:42:47;23.50;99.90
21712;DHT22;11017;53.552;9.910;2023-06-22T06:45:16;23.30;99.90
21712;DHT22;11017;53.552;9.910;2023-06-22T06:47:43;23.30;99.90
21712;DHT22;11017;53.552;9.910;2023-06-22T06:50:10;23.30;99.90
21712;DHT22;11017;53.552;9.910;2023-06-22T06:52:37;23.30;99.90
21712;DHT22;11017;53.552;9.910;2023-06-22T06:55:07;23.50;99.90
21712;DHT22;11017;53.552;9.910;2023-06-22T06:57:37;23.60;99.90
21712;DHT22;11017;53.552;9.910;2023-06-22T07:00:06;23.70;99.90
21712;DHT22;11017;53.552;9.910;2023-06-22T07:02:35;23.80;99.90
21712;DHT22;11017;53.552;9.910;2023-06-22T07:05:02;23.80;99.90
21712;DHT22;11017;53.552;9.910;2023-06-22T07:07:29;23.70;99.90
21712;DHT22;11017;53.552;9.910;2023-06-22T07:09:56;23.60;99.90
21712;DHT22;11017;53.552;9.910;2023-06-22T07:12:25;23.30;99.90
21712;DHT22;11017;53.552;9.910;2023-06-22T07:14:51;23.50;99.90
21712;DHT22;11017;53.552;9.910;2023-06-22T07:17:18;23.50;99.90
21712;DHT22;11017;53.552;9.910;2023-06-22T07:19:45;23.60;99.90
21712;DHT22;11017;53.552;9.910;2023-06-22T07:22:12;23.90;99.90
21712;DHT22;11017;53.552;9.910;2023-06-22T07:24:39;24.10;99.90
21712;DHT22;11017;53.552;9.910;2023-06-22T07:27:07;23.80;99.90
21712;DHT22;11017;53.552;9.910;2023-06-22T07:29:38;23.90;99.90
21712;DHT22;11017;53.552;9.910;2023-06-22T07:32:06;24.30;99.90
21712;DHT22;11017;53.552;9.910;2023-06-22T07:34:34;24.60;99.90
21712;DHT22;11017;53.552;9.910;2023-06-22T07:37:01;24.50;99.90
21712;DHT22;11017;53.552;9.910;2023-06-22T07:39:28;24.80;99.90
21712;DHT22;11017;53.552;9.910;2023-06-22T07:41:55;24.90;99.90
21712;DHT22;11017;53.552;9.910;2023-06-22T07:44:21;25.30;99.90
21712;DHT22;11017;53.552;9.910;2023-06-22T07:46:50;25.80;99.90
21712;DHT22;11017;53.552;9.910;2023-06-22T07:49:17;25.60;99.90
21712;DHT22;11017;53.552;9.910;2023-06-22T07:51:44;25.40;99.90
21712;DHT22;11017;53.552;9.910;2023-06-22T07:54:11;25.30;99.90
21712;DHT22;11017;53.552;9.910;2023-06-22T07:56:37;25.60;99.90
21712;DHT22;11017;53.552;9.910;2023-06-22T07:59:04;25.40;99.90
21712;DHT22;11017;53.552;9.910;2023-06-22T08:01:31;25.60;99.90
21712;DHT22;11017;53.552;9.910;2023-06-22T08:03:59;26.00;99.90
21712;DHT22;11017;53.552;9.910;2023-06-22T08:06:28;25.80;99.90
21712;DHT22;11017;53.552;9.910;2023-06-22T08:08:56;26.00;99.90
21712;DHT22;11017;53.552;9.910;2023-06-22T08:11:24;26.40;99.90
21712;DHT22;11017;53.552;9.910;2023-06-22T08:13:51;26.70;99.90
21712;DHT22;11017;53.552;9.910;2023-06-22T08:16:18;26.60;99.90
21712;DHT22;11017;53.552;9.910;2023-06-22T08:18:45;26.70;99.90
21712;DHT22;11017;53.552;9.910;2023-06-22T08:21:14;26.50;99.90
21712;DHT22;11017;53.552;9.910;2023-06-22T08:23:41;26.40;99.90
21712;DHT22;11017;53.552;9.910;2023-06-22T08:26:08;26.10;99.90
21712;DHT22;11017;53.552;9.910;2023-06-22T08:28:34;25.90;99.90
21712;DHT22;11017;53.552;9.910;2023-06-22T08:31:02;26.40;99.90
21712;DHT22;11017;53.552;9.910;2023-06-22T08:33:29;26.40;99.90
21712;DHT22;11017;53.552;9.910;2023-06-22T08:35:57;26.30;99.90
21712;DHT22;11017;53.552;9.910;2023-06-22T08:38:26;26.50;99.90
21712;DHT22;11017;53.552;9.910;2023-06-22T08:40:52;26.40;99.90
21712;DHT22;11017;53.552;9.910;2023-06-22T08:43:19;26.30;99.90
21712;DHT22;11017;53.552;9.910;2023-06-22T08:45:46;26.20;99.90
21712;DHT22;11017;53.552;9.910;2023-06-22T08:48:13;26.30;99.90
21712;DHT22;11017;53.552;9.910;2023-06-22T08:50:40;26.20;99.90
21712;DHT22;11017;53.552;9.910;2023-06-22T08:53:07;26.40;99.90
21712;DHT22;11017;53.552;9.910;2023-06-22T08:55:35;27.00;99.90
21712;DHT22;11017;53.552;9.910;2023-06-22T08:58:02;27.40;99.90
21712;DHT22;11017;53.552;9.910;2023-06-22T09:00:30;27.40;99.90
21712;DHT22;11017;53.552;9.910;2023-06-22T09:03:00;28.40;99.90
21712;DHT22;11017;53.552;9.910;2023-06-22T09:05:27;29.30;99.90
21712;DHT22;11017;53.552;9.910;2023-06-22T09:07:55;29.50;99.90
21712;DHT22;11017;53.552;9.910;2023-06-22T09:10:22;30.20;99.90
21712;DHT22;11017;53.552;9.910;2023-06-22T09:12:50;30.40;99.90
21712;DHT22;11017;53.552;9.910;2023-06-22T09:15:17;30.20;99.90
21712;DHT22;11017;53.552;9.910;2023-06-22T09:17:44;31.70;99.00
21712;DHT22;11017;53.552;9.910;2023-06-22T09:20:12;31.70;98.40
21712;DHT22;11017;53.552;9.910;2023-06-22T09:22:40;31.80;98.10
21712;DHT22;11017;53.552;9.910;2023-06-22T09:25:07;31.60;97.40
21712;DHT22;11017;53.552;9.910;2023-06-22T09:27:34;31.90;95.90
21712;DHT22;11017;53.552;9.910;2023-06-22T09:30:03;32.30;96.20
21712;DHT22;11017;53.552;9.910;2023-06-22T09:32:31;32.90;95.40
21712;DHT22;11017;53.552;9.910;2023-06-22T09:34:57;32.90;95.50
21712;DHT22;11017;53.552;9.910;2023-06-22T09:37:24;32.90;93.40
21712;DHT22;11017;53.552;9.910;2023-06-22T09:39:51;32.80;94.20
21712;DHT22;11017;53.552;9.910;2023-06-22T09:42:18;33.00;93.40
21712;DHT22;11017;53.552;9.910;2023-06-22T09:44:46;33.00;95.40
21712;DHT22;11017;53.552;9.910;2023-06-22T09:47:14;33.70;93.20
21712;DHT22;11017;53.552;9.910;2023-06-22T09:49:41;33.40;91.40
21712;DHT22;11017;53.552;9.910;2023-06-22T09:52:08;33.00;92.20
21712;DHT22;11017;53.552;9.910;2023-06-22T09:54:36;33.10;91.20
21712;DHT22;11017;53.552;9.910;2023-06-22T09:57:04;33.50;90.80
21712;DHT22;11017;53.552;9.910;2023-06-22T09:59:31;33.30;90.20
21712;DHT22;11017;53.552;9.910;2023-06-22T10:01:57;32.40;90.40
21712;DHT22;11017;53.552;9.910;2023-06-22T10:04:26;32.50;91.30
21712;DHT22;11017;53.552;9.910;2023-06-22T10:06:53;33.20;90.80
21712;DHT22;11017;53.552;9.910;2023-06-22T10:09:19;33.60;90.70
21712;DHT22;11017;53.552;9.910;2023-06-22T10:11:47;33.70;90.10
21712;DHT22;11017;53.552;9.910;2023-06-22T10:14:13;33.30;90.10
21712;DHT22;11017;53.552;9.910;2023-06-22T10:16:40;34.20;90.60
21712;DHT22;11017;53.552;9.910;2023-06-22T10:19:07;34.50;89.50
21712;DHT22;11017;53.552;9.910;2023-06-22T10:21:36;33.90;89.30
21712;DHT22;11017;53.552;9.910;2023-06-22T10:24:03;33.90;90.00
21712;DHT22;11017;53.552;9.910;2023-06-22T10:26:32;34.20;89.30
21712;DHT22;11017;53.552;9.910;2023-06-22T10:28:59;33.90;87.50
21712;DHT22;11017;53.552;9.910;2023-06-22T10:31:26;34.50;90.90
21712;DHT22;11017;53.552;9.910;2023-06-22T10:33:54;34.70;87.90
21712;DHT22;11017;53.552;9.910;2023-06-22T10:36:21;34.50;86.90
21712;DHT22;11017;53.552;9.910;2023-06-22T10:38:49;34.70;85.40
21712;DHT22;11017;53.552;9.910;2023-06-22T10:41:16;34.10;86.20
21712;DHT22;11017;53.552;9.910;2023-06-22T10:43:43;34.60;87.00
21712;DHT22;11017;53.552;9.910;2023-06-22T10:46:10;34.10;86.10
21712;DHT22;11017;53.552;9.910;2023-06-22T10:48:37;34.50;85.90
21712;DHT22;11017;53.552;9.910;2023-06-22T10:51:04;34.10;86.60
21712;DHT22;11017;53.552;9.910;2023-06-22T10:53:31;34.80;85.50
21712;DHT22;11017;53.552;9.910;2023-06-22T10:56:00;34.80;85.90
21712;DHT22;11017;53.552;9.910;2023-06-22T10:58:26;34.80;87.30
21712;DHT22;11017;53.552;9.910;2023-06-22T11:00:53;35.60;85.90
21712;DHT22;11017;53.552;9.910;2023-06-22T11:03:20;36.10;83.80
21712;DHT22;11017;53.552;9.910;2023-06-22T11:05:47;36.10;82.90
21712;DHT22;11017;53.552;9.910;2023-06-22T11:08:14;35.50;83.90
21712;DHT22;11017;53.552;9.910;2023-06-22T11:10:41;35.50;87.10
21712;DHT22;11017;53.552;9.910;2023-06-22T11:13:09;36.50;82.90
21712;DHT22;11017;53.552;9.910;2023-06-22T11:15:36;36.90;82.30
21712;DHT22;11017;53.552;9.910;2023-06-22T11:18:03;36.00;82.40
21712;DHT22;11017;53.552;9.910;2023-06-22T11:20:33;34.90;84.40
21712;DHT22;11017;53.552;9.910;2023-06-22T11:23:04;35.00;83.20
21712;DHT22;11017;53.552;9.910;2023-06-22T11:25:31;35.00;84.20
21712;DHT22;11017;53.552;9.910;2023-06-22T11:28:01;35.70;83.20
21712;DHT22;11017;53.552;9.910;2023-06-22T11:30:29;35.60;81.50
21712;DHT22;11017;53.552;9.910;2023-06-22T11:32:56;35.70;83.30
21712;DHT22;11017;53.552;9.910;2023-06-22T11:35:24;35.40;82.00
21712;DHT22;11017;53.552;9.910;2023-06-22T11:37:51;35.90;82.70
21712;DHT22;11017;53.552;9.910;2023-06-22T11:40:17;36.80;84.70
21712;DHT22;11017;53.552;9.910;2023-06-22T11:42:44;37.40;82.40
21712;DHT22;11017;53.552;9.910;2023-06-22T11:45:11;37.60;81.50
21712;DHT22;11017;53.552;9.910;2023-06-22T11:47:39;38.30;78.50
21712;DHT22;11017;53.552;9.910;2023-06-22T11:50:07;37.50;77.40
21712;DHT22;11017;53.552;9.910;2023-06-22T11:52:34;35.60;78.90
21712;DHT22;11017;53.552;9.910;2023-06-22T11:55:02;35.30;79.10
21712;DHT22;11017;53.552;9.910;2023-06-22T11:57:33;34.90;79.40
21712;DHT22;11017;53.552;9.910;2023-06-22T12:00:01;34.80;81.00
21712;DHT22;11017;53.552;9.910;2023-06-22T12:02:31;34.10;82.80
21712;DHT22;11017;53.552;9.910;2023-06-22T12:05:00;34.20;82.60
21712;DHT22;11017;53.552;9.910;2023-06-22T12:07:30;33.20;83.80
21712;DHT22;11017;53.552;9.910;2023-06-22T12:09:57;33.00;82.90
21712;DHT22;11017;53.552;9.910;2023-06-22T12:12:24;32.50;84.20
21712;DHT22;11017;53.552;9.910;2023-06-22T12:14:51;32.10;84.40
21712;DHT22;11017;53.552;9.910;2023-06-22T12:17:17;32.30;86.10
21712;DHT22;11017;53.552;9.910;2023-06-22T12:19:44;33.00;85.70
21712;DHT22;11017;53.552;9.910;2023-06-22T12:22:13;33.20;84.20
21712;DHT22;11017;53.552;9.910;2023-06-22T12:24:40;33.10;84.80
21712;DHT22;11017;53.552;9.910;2023-06-22T12:27:06;32.60;84.80
21712;DHT22;11017;53.552;9.910;2023-06-22T12:29:33;32.90;85.80
21712;DHT22;11017;53.552;9.910;2023-06-22T12:32:00;33.10;85.70
21712;DHT22;11017;53.552;9.910;2023-06-22T12:34:27;32.90;84.60
21712;DHT22;11017;53.552;9.910;2023-06-22T12:36:54;32.40;85.80
21712;DHT22;11017;53.552;9.910;2023-06-22T12:39:22;32.70;86.90
21712;DHT22;11017;53.552;9.910;2023-06-22T12:41:49;33.00;86.80
21712;DHT22;11017;53.552;9.910;2023-06-22T12:44:17;33.30;86.00
21712;DHT22;11017;53.552;9.910;2023-06-22T12:46:43;34.20;84.50
21712;DHT22;11017;53.552;9.910;2023-06-22T12:49:10;34.10;83.40
21712;DHT22;11017;53.552;9.910;2023-06-22T12:51:40;34.10;84.30
21712;DHT22;11017;53.552;9.910;2023-06-22T12:54:07;34.20;83.70
21712;DHT22;11017;53.552;9.910;2023-06-22T12:56:36;33.20;83.70
21712;DHT22;11017;53.552;9.910;2023-06-22T12:59:03;33.00;85.10
21712;DHT22;11017;53.552;9.910;2023-06-22T13:01:30;33.90;84.60
21712;DHT22;11017;53.552;9.910;2023-06-22T13:04:00;34.00;83.40
21712;DHT22;11017;53.552;9.910;2023-06-22T13:06:27;34.00;83.20
21712;DHT22;11017;53.552;9.910;2023-06-22T13:08:54;34.20;84.40
21712;DHT22;11017;53.552;9.910;2023-06-22T13:11:21;35.50;87.00
21712;DHT22;11017;53.552;9.910;2023-06-22T13:13:49;35.90;82.20
21712;DHT22;11017;53.552;9.910;2023-06-22T13:16:16;34.00;84.10
21712;DHT22;11017;53.552;9.910;2023-06-22T13:18:43;33.20;85.80
21712;DHT22;11017;53.552;9.910;2023-06-22T13:21:09;32.40;86.90
21712;DHT22;11017;53.552;9.910;2023-06-22T13:23:36;32.70;87.20
21712;DHT22;11017;53.552;9.910;2023-06-22T13:26:03;32.30;87.10
21712;DHT22;11017;53.552;9.910;2023-06-22T13:28:30;31.60;87.60
21712;DHT22;11017;53.552;9.910;2023-06-22T13:30:58;31.20;88.10
21712;DHT22;11017;53.552;9.910;2023-06-22T13:33:25;31.20;88.20
21712;DHT22;11017;53.552;9.910;2023-06-22T13:35:52;31.00;88.40
21712;DHT22;11017;53.552;9.910;2023-06-22T13:38:19;31.00;89.80
21712;DHT22;11017;53.552;9.910;2023-06-22T13:40:46;31.30;89.20
21712;DHT22;11017;53.552;9.910;2023-06-22T13:43:14;31.10;89.70
21712;DHT22;11017;53.552;9.910;2023-06-22T13:45:41;30.50;89.60
21712;DHT22;11017;53.552;9.910;2023-06-22T13:48:10;31.00;90.40
21712;DHT22;11017;53.552;9.910;2023-06-22T13:50:37;31.10;89.30
21712;DHT22;11017;53.552;9.910;2023-06-22T13:53:03;31.20;90.40
21712;DHT22;11017;53.552;9.910;2023-06-22T13:55:30;31.50;89.80
21712;DHT22;11017;53.552;9.910;2023-06-22T13:57:57;31.90;89.40
21712;DHT22;11017;53.552;9.910;2023-06-22T14:00:24;32.60;90.10
21712;DHT22;11017;53.552;9.910;2023-06-22T14:02:52;33.00;87.90
21712;DHT22;11017;53.552;9.910;2023-06-22T14:05:20;32.50;89.00
21712;DHT22;11017;53.552;9.910;2023-06-22T14:07:47;32.80;88.00
21712;DHT22;11017;53.552;9.910;2023-06-22T14:10:14;32.20;89.00
21712;DHT22;11017;53.552;9.910;2023-06-22T14:12:41;32.20;89.20
21712;DHT22;11017;53.552;9.910;2023-06-22T14:15:08;31.50;89.30
21712;DHT22;11017;53.552;9.910;2023-06-22T14:17:35;30.10;90.30
21712;DHT22;11017;53.552;9.910;2023-06-22T14:20:03;29.90;90.70
21712;DHT22;11017;53.552;9.910;2023-06-22T14:22:32;29.90;91.10
21712;DHT22;11017;53.552;9.910;2023-06-22T14:25:00;29.90;90.80
21712;DHT22;11017;53.552;9.910;2023-06-22T14:27:28;29.70;91.40
21712;DHT22;11017;53.552;9.910;2023-06-22T14:29:54;29.30;91.60
21712;DHT22;11017;53.552;9.910;2023-06-22T14:32:21;29.20;91.40
21712;DHT22;11017;53.552;9.910;2023-06-22T14:34:49;29.10;91.90
21712;DHT22;11017;53.552;9.910;2023-06-22T14:37:16;29.10;92.90
21712;DHT22;11017;53.552;9.910;2023-06-22T14:39:45;28.60;92.70
21712;DHT22;11017;53.552;9.910;2023-06-22T14:42:11;28.70;92.40
21712;DHT22;11017;53.552;9.910;2023-06-22T14:44:38;28.20;92.60
21712;DHT22;11017;53.552;9.910;2023-06-22T14:47:06;28.10;92.90
21712;DHT22;11017;53.552;9.910;2023-06-22T14:49:33;28.30;93.30
21712;DHT22;11017;53.552;9.910;2023-06-22T14:52:01;28.30;93.00
21712;DHT22;11017;53.552;9.910;2023-06-22T14:54:28;28.40;93.50
21712;DHT22;11017;53.552;9.910;2023-06-22T14:56:56;28.60;93.50
21712;DHT22;11017;53.552;9.910;2023-06-22T14:59:23;28.30;93.50
21712;DHT22;11017;53.552;9.910;2023-06-22T15:01:50;28.10;94.00
21712;DHT22;11017;53.552;9.910;2023-06-22T15:04:17;28.10;94.10
21712;DHT22;11017;53.552;9.910;2023-06-22T15:06:44;28.00;94.50
21712;DHT22;11017;53.552;9.910;2023-06-22T15:09:11;28.20;94.80
21712;DHT22;11017;53.552;9.910;2023-06-22T15:11:38;28.20;94.30
21712;DHT22;11017;53.552;9.910;2023-06-22T15:14:06;28.30;94.50
21712;DHT22;11017;53.552;9.910;2023-06-22T15:16:33;28.30;94.40
21712;DHT22;11017;53.552;9.910;2023-06-22T15:19:00;27.90;94.90
21712;DHT22;11017;53.552;9.910;2023-06-22T15:21:27;27.50;95.30
21712;DHT22;11017;53.552;9.910;2023-06-22T15:23:54;27.70;95.40
21712;DHT22;11017;53.552;9.910;2023-06-22T15:26:21;27.70;95.50
21712;DHT22;11017;53.552;9.910;2023-06-22T15:28:48;27.70;95.40
21712;DHT22;11017;53.552;9.910;2023-06-22T15:31:16;27.90;95.40